sensor_id;sensor_type;location;lat;lon;timestamp;temperature;humidity
11491;DHT22;5802;52.832;4.758;2022-12-29T00:01:37;23.00;44.40
11491;DHT22;5802;52.832;4.758;2022-12-29T00:04:04;23.00;44.50
11491;DHT22;5802;52.832;4.758;2022-12-29T00:06:31;23.00;44.50
11491;DHT22;5802;52.832;4.758;2022-12-29T00:08:58;23.00;44.50
11491;DHT22;5802;52.832;4.758;2022-12-29T00:11:27;23.00;44.50
11491;DHT22;5802;52.832;4.758;2022-12-29T00:13:54;23.00;44.50
11491;DHT22;5802;52.832;4.758;2022-12-29T00:16:41;23.00;44.50
11491;DHT22;5802;52.832;4.758;2022-12-29T00:19:09;23.00;44.60
11491;DHT22;5802;52.832;4.758;2022-12-29T00:21:57;22.90;44.60
11491;DHT22;5802;52.832;4.758;2022-12-29T00:24:41;23.00;44.70
11491;DHT22;5802;52.832;4.758;2022-12-29T00:27:27;22.90;44.60
11491;DHT22;5802;52.832;4.758;2022-12-29T00:30:13;22.90;44.70
11491;DHT22;5802;52.832;4.758;2022-12-29T00:32:57;22.90;44.70
11491;DHT22;5802;52.832;4.758;2022-12-29T00:35:45;22.90;44.80
11491;DHT22;5802;52.832;4.758;2022-12-29T00:38:13;22.90;44.80
11491;DHT22;5802;52.832;4.758;2022-12-29T00:40:58;22.90;44.80
11491;DHT22;5802;52.832;4.758;2022-12-29T00:43:44;22.90;44.80
11491;DHT22;5802;52.832;4.758;2022-12-29T00:46:28;22.90;44.80
11491;DHT22;5802;52.832;4.758;2022-12-29T00:48:54;22.80;44.80
11491;DHT22;5802;52.832;4.758;2022-12-29T00:51:39;22.80;44.80
11491;DHT22;5802;52.832;4.758;2022-12-29T00:54:05;22.80;44.90
11491;DHT22;5802;52.832;4.758;2022-12-29T00:56:32;22.80;44.90
11491;DHT22;5802;52.832;4.758;2022-12-29T00:59:01;22.80;45.00
11491;DHT22;5802;52.832;4.758;2022-12-29T01:01:28;22.80;45.00
11491;DHT22;5802;52.832;4.758;2022-12-29T01:03:55;22.80;45.00
11491;DHT22;5802;52.832;4.758;2022-12-29T01:06:23;22.80;45.00
11491;DHT22;5802;52.832;4.758;2022-12-29T01:08:50;22.80;44.90
11491;DHT22;5802;52.832;4.758;2022-12-29T01:11:37;22.80;45.00
11491;DHT22;5802;52.832;4.758;2022-12-29T01:14:05;22.80;45.00
11491;DHT22;5802;52.832;4.758;2022-12-29T01:16:32;22.80;45.00
11491;DHT22;5802;52.832;4.758;2022-12-29T01:18:59;22.80;45.00
11491;DHT22;5802;52.832;4.758;2022-12-29T01:21:25;22.80;45.00
11491;DHT22;5802;52.832;4.758;2022-12-29T01:23:52;22.80;45.00
11491;DHT22;5802;52.832;4.758;2022-12-29T01:26:19;22.80;45.00
11491;DHT22;5802;52.832;4.758;2022-12-29T01:28:46;22.80;45.00
11491;DHT22;5802;52.832;4.758;2022-12-29T01:31:15;22.80;45.00
11491;DHT22;5802;52.832;4.758;2022-12-29T01:33:42;22.80;45.00
11491;DHT22;5802;52.832;4.758;2022-12-29T01:36:11;22.80;45.00
11491;DHT22;5802;52.832;4.758;2022-12-29T01:38:39;22.80;45.10
11491;DHT22;5802;52.832;4.758;2022-12-29T01:41:08;22.80;45.00
11491;DHT22;5802;52.832;4.758;2022-12-29T01:43:44;22.80;45.10
11491;DHT22;5802;52.832;4.758;2022-12-29T01:46:20;22.80;45.10
11491;DHT22;5802;52.832;4.758;2022-12-29T01:48:52;22.80;45.10
11491;DHT22;5802;52.832;4.758;2022-12-29T01:51:22;22.80;45.10
11491;DHT22;5802;52.832;4.758;2022-12-29T01:53:49;22.80;45.10
11491;DHT22;5802;52.832;4.758;2022-12-29T01:56:18;22.80;45.10
11491;DHT22;5802;52.832;4.758;2022-12-29T01:58:49;22.80;45.10
11491;DHT22;5802;52.832;4.758;2022-12-29T02:01:21;22.80;45.10
11491;DHT22;5802;52.832;4.758;2022-12-29T02:03:48;22.80;45.10
11491;DHT22;5802;52.832;4.758;2022-12-29T02:06:18;22.80;45.10
11491;DHT22;5802;52.832;4.758;2022-12-29T02:08:47;22.80;45.10
11491;DHT22;5802;52.832;4.758;2022-12-29T02:11:16;22.80;45.10
11491;DHT22;5802;52.832;4.758;2022-12-29T02:13:42;22.80;45.00
11491;DHT22;5802;52.832;4.758;2022-12-29T02:16:18;22.80;45.10
11491;DHT22;5802;52.832;4.758;2022-12-29T02:18:57;22.80;45.10
11491;DHT22;5802;52.832;4.758;2022-12-29T02:21:56;22.80;45.10
11491;DHT22;5802;52.832;4.758;2022-12-29T02:27:40;22.70;45.10
11491;DHT22;5802;52.832;4.758;2022-12-29T02:30:42;22.70;45.10
11491;DHT22;5802;52.832;4.758;2022-12-29T02:33:21;22.70;45.10
11491;DHT22;5802;52.832;4.758;2022-12-29T02:35:56;22.70;45.10
11491;DHT22;5802;52.832;4.758;2022-12-29T02:38:34;22.70;45.10
11491;DHT22;5802;52.832;4.758;2022-12-29T02:41:08;22.70;45.10
11491;DHT22;5802;52.832;4.758;2022-12-29T02:43:47;22.70;45.10
11491;DHT22;5802;52.832;4.758;2022-12-29T02:46:21;22.70;45.00
11491;DHT22;5802;52.832;4.758;2022-12-29T02:48:59;22.70;45.00
11491;DHT22;5802;52.832;4.758;2022-12-29T02:51:32;22.70;45.00
11491;DHT22;5802;52.832;4.758;2022-12-29T02:53:59;22.70;45.00
11491;DHT22;5802;52.832;4.758;2022-12-29T02:56:44;22.70;45.00
11491;DHT22;5802;52.832;4.758;2022-12-29T02:59:12;22.80;45.00
11491;DHT22;5802;52.832;4.758;2022-12-29T03:01:50;22.70;45.00
11491;DHT22;5802;52.832;4.758;2022-12-29T03:04:39;22.70;44.90
11491;DHT22;5802;52.832;4.758;2022-12-29T03:07:12;22.70;44.90
11491;DHT22;5802;52.832;4.758;2022-12-29T03:09:49;22.70;44.90
11491;DHT22;5802;52.832;4.758;2022-12-29T03:12:25;22.70;44.90
11491;DHT22;5802;52.832;4.758;2022-12-29T03:15:18;22.70;44.80
11491;DHT22;5802;52.832;4.758;2022-12-29T03:18:08;22.70;44.90
11491;DHT22;5802;52.832;4.758;2022-12-29T03:20:40;22.70;44.80
11491;DHT22;5802;52.832;4.758;2022-12-29T03:23:08;22.70;44.80
11491;DHT22;5802;52.832;4.758;2022-12-29T03:25:38;22.70;44.80
11491;DHT22;5802;52.832;4.758;2022-12-29T03:28:08;22.70;44.80
11491;DHT22;5802;52.832;4.758;2022-12-29T03:30:36;22.70;44.70
11491;DHT22;5802;52.832;4.758;2022-12-29T03:33:08;22.70;44.80
11491;DHT22;5802;52.832;4.758;2022-12-29T03:35:38;22.70;44.70
11491;DHT22;5802;52.832;4.758;2022-12-29T03:38:10;22.70;44.70
11491;DHT22;5802;52.832;4.758;2022-12-29T03:40:39;22.70;44.70
11491;DHT22;5802;52.832;4.758;2022-12-29T03:43:07;22.70;44.70
11491;DHT22;5802;52.832;4.758;2022-12-29T03:45:34;22.70;44.60
11491;DHT22;5802;52.832;4.758;2022-12-29T03:48:01;22.70;44.60
11491;DHT22;5802;52.832;4.758;2022-12-29T03:50:29;22.70;44.60
11491;DHT22;5802;52.832;4.758;2022-12-29T03:52:56;22.70;44.60
11491;DHT22;5802;52.832;4.758;2022-12-29T03:55:23;22.70;44.60
11491;DHT22;5802;52.832;4.758;2022-12-29T03:57:49;22.70;44.60
11491;DHT22;5802;52.832;4.758;2022-12-29T04:00:16;22.70;44.60
11491;DHT22;5802;52.832;4.758;2022-12-29T04:02:43;22.70;44.60
11491;DHT22;5802;52.832;4.758;2022-12-29T04:05:10;22.70;44.60
11491;DHT22;5802;52.832;4.758;2022-12-29T04:07:38;22.70;44.50
11491;DHT22;5802;52.832;4.758;2022-12-29T04:10:05;22.70;44.50
11491;DHT22;5802;52.832;4.758;2022-12-29T04:12:32;22.70;44.50
11491;DHT22;5802;52.832;4.758;2022-12-29T04:14:59;22.70;44.50
11491;DHT22;5802;52.832;4.758;2022-12-29T04:17:25;22.70;44.50
11491;DHT22;5802;52.832;4.758;2022-12-29T04:19:52;22.70;44.50
11491;DHT22;5802;52.832;4.758;2022-12-29T04:22:40;22.70;44.50
11491;DHT22;5802;52.832;4.758;2022-12-29T04:25:07;22.70;44.50
11491;DHT22;5802;52.832;4.758;2022-12-29T04:27:34;22.70;44.60
11491;DHT22;5802;52.832;4.758;2022-12-29T04:30:01;22.70;44.60
11491;DHT22;5802;52.832;4.758;2022-12-29T04:32:27;22.70;44.60
11491;DHT22;5802;52.832;4.758;2022-12-29T04:34:54;22.70;44.60
11491;DHT22;5802;52.832;4.758;2022-12-29T04:37:21;22.70;44.60
11491;DHT22;5802;52.832;4.758;2022-12-29T04:39:49;22.70;44.60
11491;DHT22;5802;52.832;4.758;2022-12-29T04:42:18;22.70;44.60
11491;DHT22;5802;52.832;4.758;2022-12-29T04:44:45;22.70;44.60
11491;DHT22;5802;52.832;4.758;2022-12-29T04:47:11;22.70;44.60
11491;DHT22;5802;52.832;4.758;2022-12-29T04:49:38;22.60;44.50
11491;DHT22;5802;52.832;4.758;2022-12-29T04:52:05;22.60;44.50
11491;DHT22;5802;52.832;4.758;2022-12-29T04:54:33;22.60;44.60
11491;DHT22;5802;52.832;4.758;2022-12-29T04:57:01;22.70;44.60
11491;DHT22;5802;52.832;4.758;2022-12-29T04:59:28;22.60;44.60
11491;DHT22;5802;52.832;4.758;2022-12-29T05:01:55;22.70;44.60
11491;DHT22;5802;52.832;4.758;2022-12-29T05:04:21;22.60;44.60
11491;DHT22;5802;52.832;4.758;2022-12-29T05:06:48;22.70;44.60
11491;DHT22;5802;52.832;4.758;2022-12-29T05:09:15;22.60;44.60
11491;DHT22;5802;52.832;4.758;2022-12-29T05:11:41;22.70;44.60
11491;DHT22;5802;52.832;4.758;2022-12-29T05:14:09;22.70;44.70
11491;DHT22;5802;52.832;4.758;2022-12-29T05:16:36;22.60;44.60
11491;DHT22;5802;52.832;4.758;2022-12-29T05:19:03;22.60;45.30
11491;DHT22;5802;52.832;4.758;2022-12-29T05:21:29;22.60;44.60
11491;DHT22;5802;52.832;4.758;2022-12-29T05:23:56;22.60;44.60
11491;DHT22;5802;52.832;4.758;2022-12-29T05:26:22;22.60;44.60
11491;DHT22;5802;52.832;4.758;2022-12-29T05:28:49;22.60;44.70
11491;DHT22;5802;52.832;4.758;2022-12-29T05:31:17;22.60;44.70
11491;DHT22;5802;52.832;4.758;2022-12-29T05:33:44;22.60;44.70
11491;DHT22;5802;52.832;4.758;2022-12-29T05:36:11;22.60;44.60
11491;DHT22;5802;52.832;4.758;2022-12-29T05:38:38;22.60;44.70
11491;DHT22;5802;52.832;4.758;2022-12-29T05:41:05;22.60;44.70
11491;DHT22;5802;52.832;4.758;2022-12-29T05:43:31;22.60;44.70
11491;DHT22;5802;52.832;4.758;2022-12-29T05:45:58;22.60;44.70
11491;DHT22;5802;52.832;4.758;2022-12-29T05:48:26;22.60;44.70
11491;DHT22;5802;52.832;4.758;2022-12-29T05:50:53;22.60;44.70
11491;DHT22;5802;52.832;4.758;2022-12-29T05:53:19;22.70;44.70
11491;DHT22;5802;52.832;4.758;2022-12-29T05:55:47;22.60;44.60
11491;DHT22;5802;52.832;4.758;2022-12-29T05:58:14;22.60;44.60
11491;DHT22;5802;52.832;4.758;2022-12-29T06:00:41;22.60;44.60
11491;DHT22;5802;52.832;4.758;2022-12-29T06:03:08;22.60;44.60
11491;DHT22;5802;52.832;4.758;2022-12-29T06:05:36;22.60;44.60
11491;DHT22;5802;52.832;4.758;2022-12-29T06:08:03;22.60;44.70
11491;DHT22;5802;52.832;4.758;2022-12-29T06:10:29;22.60;44.60
11491;DHT22;5802;52.832;4.758;2022-12-29T06:12:57;22.60;44.60
11491;DHT22;5802;52.832;4.758;2022-12-29T06:15:23;22.60;44.60
11491;DHT22;5802;52.832;4.758;2022-12-29T06:17:50;22.60;44.60
11491;DHT22;5802;52.832;4.758;2022-12-29T06:20:17;22.60;44.60
11491;DHT22;5802;52.832;4.758;2022-12-29T06:22:45;22.70;44.70
11491;DHT22;5802;52.832;4.758;2022-12-29T06:25:12;22.60;44.60
11491;DHT22;5802;52.832;4.758;2022-12-29T06:27:38;22.60;44.60
11491;DHT22;5802;52.832;4.758;2022-12-29T06:30:06;22.70;44.60
11491;DHT22;5802;52.832;4.758;2022-12-29T06:32:34;22.70;44.60
11491;DHT22;5802;52.832;4.758;2022-12-29T06:35:01;22.70;44.60
11491;DHT22;5802;52.832;4.758;2022-12-29T06:37:28;22.70;44.50
11491;DHT22;5802;52.832;4.758;2022-12-29T06:39:56;22.60;44.50
11491;DHT22;5802;52.832;4.758;2022-12-29T06:42:22;22.70;44.50
11491;DHT22;5802;52.832;4.758;2022-12-29T06:44:49;22.70;44.50
11491;DHT22;5802;52.832;4.758;2022-12-29T06:47:16;22.70;44.50
11491;DHT22;5802;52.832;4.758;2022-12-29T06:49:42;22.70;44.50
11491;DHT22;5802;52.832;4.758;2022-12-29T06:52:09;22.70;44.50
11491;DHT22;5802;52.832;4.758;2022-12-29T06:54:36;22.70;44.50
11491;DHT22;5802;52.832;4.758;2022-12-29T06:57:04;22.70;44.50
11491;DHT22;5802;52.832;4.758;2022-12-29T06:59:30;22.70;44.50
11491;DHT22;5802;52.832;4.758;2022-12-29T07:01:57;22.70;44.40
11491;DHT22;5802;52.832;4.758;2022-12-29T07:04:24;22.70;44.40
11491;DHT22;5802;52.832;4.758;2022-12-29T07:06:50;22.70;44.50
11491;DHT22;5802;52.832;4.758;2022-12-29T07:09:17;22.70;44.50
11491;DHT22;5802;52.832;4.758;2022-12-29T07:11:44;22.70;44.60
11491;DHT22;5802;52.832;4.758;2022-12-29T07:14:12;22.70;44.50
11491;DHT22;5802;52.832;4.758;2022-12-29T07:16:39;22.70;44.50
11491;DHT22;5802;52.832;4.758;2022-12-29T07:19:05;22.70;44.50
11491;DHT22;5802;52.832;4.758;2022-12-29T07:21:32;22.70;44.50
11491;DHT22;5802;52.832;4.758;2022-12-29T07:23:59;22.70;44.50
11491;DHT22;5802;52.832;4.758;2022-12-29T07:26:25;22.70;44.50
11491;DHT22;5802;52.832;4.758;2022-12-29T07:28:52;22.70;44.50
11491;DHT22;5802;52.832;4.758;2022-12-29T07:31:22;22.70;44.50
11491;DHT22;5802;52.832;4.758;2022-12-29T07:33:49;22.70;44.50
11491;DHT22;5802;52.832;4.758;2022-12-29T07:36:16;22.70;44.50
11491;DHT22;5802;52.832;4.758;2022-12-29T07:38:43;22.70;44.50
11491;DHT22;5802;52.832;4.758;2022-12-29T07:41:10;22.70;44.50
11491;DHT22;5802;52.832;4.758;2022-12-29T07:43:36;22.70;44.50
11491;DHT22;5802;52.832;4.758;2022-12-29T07:46:03;22.70;44.40
11491;DHT22;5802;52.832;4.758;2022-12-29T07:48:31;22.70;44.40
11491;DHT22;5802;52.832;4.758;2022-12-29T07:50:59;22.70;44.40
11491;DHT22;5802;52.832;4.758;2022-12-29T07:53:25;22.70;44.40
11491;DHT22;5802;52.832;4.758;2022-12-29T07:55:52;22.70;44.40
11491;DHT22;5802;52.832;4.758;2022-12-29T07:58:19;22.70;44.40
11491;DHT22;5802;52.832;4.758;2022-12-29T08:00:45;22.70;44.30
11491;DHT22;5802;52.832;4.758;2022-12-29T08:03:12;22.70;44.30
11491;DHT22;5802;52.832;4.758;2022-12-29T08:05:40;22.70;44.30
11491;DHT22;5802;52.832;4.758;2022-12-29T08:08:07;22.70;44.30
11491;DHT22;5802;52.832;4.758;2022-12-29T08:10:34;22.70;44.20
11491;DHT22;5802;52.832;4.758;2022-12-29T08:13:00;22.70;44.20
11491;DHT22;5802;52.832;4.758;2022-12-29T08:15:27;22.70;44.20
11491;DHT22;5802;52.832;4.758;2022-12-29T08:17:54;22.70;44.20
11491;DHT22;5802;52.832;4.758;2022-12-29T08:20:20;22.70;44.20
11491;DHT22;5802;52.832;4.758;2022-12-29T08:22:48;22.70;44.10
11491;DHT22;5802;52.832;4.758;2022-12-29T08:25:15;22.70;44.10
11491;DHT22;5802;52.832;4.758;2022-12-29T08:27:42;22.70;44.10
11491;DHT22;5802;52.832;4.758;2022-12-29T08:30:10;22.70;44.10
11491;DHT22;5802;52.832;4.758;2022-12-29T08:32:36;22.70;44.10
11491;DHT22;5802;52.832;4.758;2022-12-29T08:35:04;22.70;44.10
11491;DHT22;5802;52.832;4.758;2022-12-29T08:37:32;22.70;44.10
11491;DHT22;5802;52.832;4.758;2022-12-29T08:40:00;22.70;44.10
11491;DHT22;5802;52.832;4.758;2022-12-29T08:42:29;22.70;44.10
11491;DHT22;5802;52.832;4.758;2022-12-29T08:44:56;22.70;44.10
11491;DHT22;5802;52.832;4.758;2022-12-29T08:47:23;22.70;44.20
11491;DHT22;5802;52.832;4.758;2022-12-29T08:49:50;22.70;44.10
11491;DHT22;5802;52.832;4.758;2022-12-29T08:52:16;22.70;44.10
11491;DHT22;5802;52.832;4.758;2022-12-29T08:54:43;22.70;44.10
11491;DHT22;5802;52.832;4.758;2022-12-29T08:57:11;22.70;44.10
11491;DHT22;5802;52.832;4.758;2022-12-29T08:59:38;22.70;44.10
11491;DHT22;5802;52.832;4.758;2022-12-29T09:02:05;22.70;44.80
11491;DHT22;5802;52.832;4.758;2022-12-29T09:04:32;22.70;44.10
11491;DHT22;5802;52.832;4.758;2022-12-29T09:06:59;22.70;44.10
11491;DHT22;5802;52.832;4.758;2022-12-29T09:09:25;22.70;44.10
11491;DHT22;5802;52.832;4.758;2022-12-29T09:11:52;22.70;44.10
11491;DHT22;5802;52.832;4.758;2022-12-29T09:14:20;22.70;44.20
11491;DHT22;5802;52.832;4.758;2022-12-29T09:16:47;22.70;44.20
11491;DHT22;5802;52.832;4.758;2022-12-29T09:19:31;22.70;44.20
11491;DHT22;5802;52.832;4.758;2022-12-29T09:21:58;22.70;44.60
11491;DHT22;5802;52.832;4.758;2022-12-29T09:24:25;22.70;44.20
11491;DHT22;5802;52.832;4.758;2022-12-29T09:26:52;22.70;44.20
11491;DHT22;5802;52.832;4.758;2022-12-29T09:29:20;22.70;44.20
11491;DHT22;5802;52.832;4.758;2022-12-29T09:31:47;22.70;44.20
11491;DHT22;5802;52.832;4.758;2022-12-29T09:34:13;22.70;44.20
11491;DHT22;5802;52.832;4.758;2022-12-29T09:36:41;22.70;44.20
11491;DHT22;5802;52.832;4.758;2022-12-29T09:39:08;22.70;44.20
11491;DHT22;5802;52.832;4.758;2022-12-29T09:41:38;22.70;44.30
11491;DHT22;5802;52.832;4.758;2022-12-29T09:44:13;22.70;44.30
11491;DHT22;5802;52.832;4.758;2022-12-29T09:46:44;22.70;44.30
11491;DHT22;5802;52.832;4.758;2022-12-29T09:49:19;22.80;44.30
11491;DHT22;5802;52.832;4.758;2022-12-29T09:51:50;22.80;44.40
11491;DHT22;5802;52.832;4.758;2022-12-29T09:54:28;22.80;44.40
11491;DHT22;5802;52.832;4.758;2022-12-29T09:56:58;22.80;44.40
11491;DHT22;5802;52.832;4.758;2022-12-29T09:59:36;22.80;44.40
11491;DHT22;5802;52.832;4.758;2022-12-29T10:02:15;22.80;44.40
11491;DHT22;5802;52.832;4.758;2022-12-29T10:04:47;22.80;44.40
11491;DHT22;5802;52.832;4.758;2022-12-29T10:07:21;22.80;44.40
11491;DHT22;5802;52.832;4.758;2022-12-29T10:09:56;22.80;44.40
11491;DHT22;5802;52.832;4.758;2022-12-29T10:12:34;22.80;44.50
11491;DHT22;5802;52.832;4.758;2022-12-29T10:15:14;22.80;44.60
11491;DHT22;5802;52.832;4.758;2022-12-29T10:17:48;22.80;44.60
11491;DHT22;5802;52.832;4.758;2022-12-29T10:20:27;22.80;44.60
11491;DHT22;5802;52.832;4.758;2022-12-29T10:23:05;22.80;44.70
11491;DHT22;5802;52.832;4.758;2022-12-29T10:25:40;22.90;44.80
11491;DHT22;5802;52.832;4.758;2022-12-29T10:28:15;22.90;44.70
11491;DHT22;5802;52.832;4.758;2022-12-29T10:30:44;22.90;44.80
11491;DHT22;5802;52.832;4.758;2022-12-29T10:33:17;22.90;45.40
11491;DHT22;5802;52.832;4.758;2022-12-29T10:35:46;22.90;44.80
11491;DHT22;5802;52.832;4.758;2022-12-29T10:38:20;22.90;44.80
11491;DHT22;5802;52.832;4.758;2022-12-29T10:40:51;22.90;44.80
11491;DHT22;5802;52.832;4.758;2022-12-29T10:43:25;22.90;44.80
11491;DHT22;5802;52.832;4.758;2022-12-29T10:45:53;22.90;44.80
11491;DHT22;5802;52.832;4.758;2022-12-29T10:48:23;22.90;44.60
11491;DHT22;5802;52.832;4.758;2022-12-29T10:50:53;22.90;44.50
11491;DHT22;5802;52.832;4.758;2022-12-29T10:53:24;22.90;44.50
11491;DHT22;5802;52.832;4.758;2022-12-29T10:55:52;23.00;44.60
11491;DHT22;5802;52.832;4.758;2022-12-29T10:58:20;23.00;44.70
11491;DHT22;5802;52.832;4.758;2022-12-29T11:00:51;23.00;44.70
11491;DHT22;5802;52.832;4.758;2022-12-29T11:03:39;23.00;44.70
11491;DHT22;5802;52.832;4.758;2022-12-29T11:06:15;23.00;44.70
11491;DHT22;5802;52.832;4.758;2022-12-29T11:08:49;23.00;44.70
11491;DHT22;5802;52.832;4.758;2022-12-29T11:11:23;23.00;44.80
11491;DHT22;5802;52.832;4.758;2022-12-29T11:13:57;23.00;44.90
11491;DHT22;5802;52.832;4.758;2022-12-29T11:16:28;23.00;45.00
11491;DHT22;5802;52.832;4.758;2022-12-29T11:18:57;23.10;45.20
11491;DHT22;5802;52.832;4.758;2022-12-29T11:21:30;23.10;45.40
11491;DHT22;5802;52.832;4.758;2022-12-29T11:23:59;23.10;45.40
11491;DHT22;5802;52.832;4.758;2022-12-29T11:26:27;23.10;45.50
11491;DHT22;5802;52.832;4.758;2022-12-29T11:29:20;23.10;45.70
11491;DHT22;5802;52.832;4.758;2022-12-29T11:31:48;23.10;45.70
11491;DHT22;5802;52.832;4.758;2022-12-29T11:34:21;23.10;45.70
11491;DHT22;5802;52.832;4.758;2022-12-29T11:36:50;23.10;45.70
11491;DHT22;5802;52.832;4.758;2022-12-29T11:39:28;23.10;45.60
11491;DHT22;5802;52.832;4.758;2022-12-29T11:41:55;23.10;45.60
11491;DHT22;5802;52.832;4.758;2022-12-29T11:44:23;23.10;45.50
11491;DHT22;5802;52.832;4.758;2022-12-29T11:46:52;23.20;45.50
11491;DHT22;5802;52.832;4.758;2022-12-29T11:49:22;23.20;45.50
11491;DHT22;5802;52.832;4.758;2022-12-29T11:51:52;23.20;45.40
11491;DHT22;5802;52.832;4.758;2022-12-29T11:54:23;23.20;45.40
11491;DHT22;5802;52.832;4.758;2022-12-29T11:56:52;23.20;45.30
11491;DHT22;5802;52.832;4.758;2022-12-29T11:59:40;23.20;45.20
11491;DHT22;5802;52.832;4.758;2022-12-29T12:02:25;23.20;45.20
11491;DHT22;5802;52.832;4.758;2022-12-29T12:05:01;23.20;45.10
11491;DHT22;5802;52.832;4.758;2022-12-29T12:07:38;23.20;45.10
11491;DHT22;5802;52.832;4.758;2022-12-29T12:10:10;23.20;45.00
11491;DHT22;5802;52.832;4.758;2022-12-29T12:12:43;23.20;45.00
11491;DHT22;5802;52.832;4.758;2022-12-29T12:15:17;23.20;44.90
11491;DHT22;5802;52.832;4.758;2022-12-29T12:17:49;23.20;44.90
11491;DHT22;5802;52.832;4.758;2022-12-29T12:20:21;23.20;44.90
11491;DHT22;5802;52.832;4.758;2022-12-29T12:22:55;23.20;44.80
11491;DHT22;5802;52.832;4.758;2022-12-29T12:25:30;23.20;44.80
11491;DHT22;5802;52.832;4.758;2022-12-29T12:28:04;23.20;44.80
11491;DHT22;5802;52.832;4.758;2022-12-29T12:30:38;23.20;44.80
11491;DHT22;5802;52.832;4.758;2022-12-29T12:33:18;23.20;44.90
11491;DHT22;5802;52.832;4.758;2022-12-29T12:35:57;23.20;44.90
11491;DHT22;5802;52.832;4.758;2022-12-29T12:38:34;23.20;44.90
11491;DHT22;5802;52.832;4.758;2022-12-29T12:41:08;23.20;44.80
11491;DHT22;5802;52.832;4.758;2022-12-29T12:43:41;23.20;44.80
11491;DHT22;5802;52.832;4.758;2022-12-29T12:46:44;23.20;44.70
11491;DHT22;5802;52.832;4.758;2022-12-29T12:49:28;23.20;44.60
11491;DHT22;5802;52.832;4.758;2022-12-29T12:52:06;23.20;44.60
11491;DHT22;5802;52.832;4.758;2022-12-29T12:54:45;23.20;44.60
11491;DHT22;5802;52.832;4.758;2022-12-29T12:57:19;23.20;44.60
11491;DHT22;5802;52.832;4.758;2022-12-29T12:59:56;23.20;44.60
11491;DHT22;5802;52.832;4.758;2022-12-29T13:02:43;23.20;44.50
11491;DHT22;5802;52.832;4.758;2022-12-29T13:05:51;23.20;44.50
11491;DHT22;5802;52.832;4.758;2022-12-29T13:08:37;23.20;44.50
11491;DHT22;5802;52.832;4.758;2022-12-29T13:11:13;23.20;44.50
11491;DHT22;5802;52.832;4.758;2022-12-29T13:16:39;23.20;44.40
11491;DHT22;5802;52.832;4.758;2022-12-29T13:19:14;23.20;44.40
11491;DHT22;5802;52.832;4.758;2022-12-29T13:21:57;23.20;44.40
11491;DHT22;5802;52.832;4.758;2022-12-29T13:24:36;23.20;44.40
11491;DHT22;5802;52.832;4.758;2022-12-29T13:27:13;23.20;44.30
11491;DHT22;5802;52.832;4.758;2022-12-29T13:29:48;23.20;44.30
11491;DHT22;5802;52.832;4.758;2022-12-29T13:32:29;23.20;44.30
11491;DHT22;5802;52.832;4.758;2022-12-29T13:35:09;23.20;44.30
11491;DHT22;5802;52.832;4.758;2022-12-29T13:37:47;23.20;44.20
11491;DHT22;5802;52.832;4.758;2022-12-29T13:40:21;23.10;44.20
11491;DHT22;5802;52.832;4.758;2022-12-29T13:42:49;23.10;44.10
11491;DHT22;5802;52.832;4.758;2022-12-29T13:45:18;23.10;44.10
11491;DHT22;5802;52.832;4.758;2022-12-29T13:47:49;23.10;44.10
11491;DHT22;5802;52.832;4.758;2022-12-29T13:50:20;23.10;44.10
11491;DHT22;5802;52.832;4.758;2022-12-29T13:52:54;23.10;44.10
11491;DHT22;5802;52.832;4.758;2022-12-29T13:55:27;23.10;44.10
11491;DHT22;5802;52.832;4.758;2022-12-29T13:58:03;23.10;44.10
11491;DHT22;5802;52.832;4.758;2022-12-29T14:00:38;23.10;44.10
11491;DHT22;5802;52.832;4.758;2022-12-29T14:03:24;23.10;44.20
11491;DHT22;5802;52.832;4.758;2022-12-29T14:06:05;23.10;44.20
11491;DHT22;5802;52.832;4.758;2022-12-29T14:08:34;23.10;44.20
11491;DHT22;5802;52.832;4.758;2022-12-29T14:11:07;23.10;44.20
11491;DHT22;5802;52.832;4.758;2022-12-29T14:13:39;23.00;44.10
11491;DHT22;5802;52.832;4.758;2022-12-29T14:16:08;23.00;44.20
11491;DHT22;5802;52.832;4.758;2022-12-29T14:18:42;23.00;44.10
11491;DHT22;5802;52.832;4.758;2022-12-29T14:21:18;23.00;44.10
11491;DHT22;5802;52.832;4.758;2022-12-29T14:23:50;23.00;44.20
11491;DHT22;5802;52.832;4.758;2022-12-29T14:26:33;23.00;44.20
11491;DHT22;5802;52.832;4.758;2022-12-29T14:29:16;23.00;44.20
11491;DHT22;5802;52.832;4.758;2022-12-29T14:31:43;23.00;44.20
11491;DHT22;5802;52.832;4.758;2022-12-29T14:34:37;23.00;44.20
11491;DHT22;5802;52.832;4.758;2022-12-29T14:37:23;23.00;44.20
11491;DHT22;5802;52.832;4.758;2022-12-29T14:40:03;22.90;44.20
11491;DHT22;5802;52.832;4.758;2022-12-29T14:42:32;22.90;44.30
11491;DHT22;5802;52.832;4.758;2022-12-29T14:45:02;22.90;44.30
11491;DHT22;5802;52.832;4.758;2022-12-29T14:47:34;23.00;44.40
11491;DHT22;5802;52.832;4.758;2022-12-29T14:50:04;22.90;44.30
11491;DHT22;5802;52.832;4.758;2022-12-29T14:52:45;22.90;44.40
11491;DHT22;5802;52.832;4.758;2022-12-29T14:55:37;22.90;44.60
11491;DHT22;5802;52.832;4.758;2022-12-29T14:58:12;22.90;44.80
11491;DHT22;5802;52.832;4.758;2022-12-29T15:00:41;22.90;44.90
11491;DHT22;5802;52.832;4.758;2022-12-29T15:03:14;22.90;45.00
11491;DHT22;5802;52.832;4.758;2022-12-29T15:05:44;22.90;45.00
11491;DHT22;5802;52.832;4.758;2022-12-29T15:08:13;22.90;45.00
11491;DHT22;5802;52.832;4.758;2022-12-29T15:10:47;22.90;45.10
11491;DHT22;5802;52.832;4.758;2022-12-29T15:13:20;22.90;45.10
11491;DHT22;5802;52.832;4.758;2022-12-29T15:15:47;22.80;45.00
11491;DHT22;5802;52.832;4.758;2022-12-29T15:18:21;22.80;45.10
11491;DHT22;5802;52.832;4.758;2022-12-29T15:20:51;22.80;45.30
11491;DHT22;5802;52.832;4.758;2022-12-29T15:23:18;22.80;45.10
11491;DHT22;5802;52.832;4.758;2022-12-29T15:25:47;22.80;45.10
11491;DHT22;5802;52.832;4.758;2022-12-29T15:28:20;22.80;45.20
11491;DHT22;5802;52.832;4.758;2022-12-29T15:30:52;22.80;45.20
11491;DHT22;5802;52.832;4.758;2022-12-29T15:33:21;22.80;45.20
11491;DHT22;5802;52.832;4.758;2022-12-29T15:35:50;22.80;45.20
11491;DHT22;5802;52.832;4.758;2022-12-29T15:38:22;22.80;45.90
11491;DHT22;5802;52.832;4.758;2022-12-29T15:40:53;22.80;45.30
11491;DHT22;5802;52.832;4.758;2022-12-29T15:43:30;22.80;45.20
11491;DHT22;5802;52.832;4.758;2022-12-29T15:46:02;22.80;45.30
11491;DHT22;5802;52.832;4.758;2022-12-29T15:48:30;22.80;45.30
11491;DHT22;5802;52.832;4.758;2022-12-29T15:50:57;22.80;45.30
11491;DHT22;5802;52.832;4.758;2022-12-29T15:53:27;22.80;45.30
11491;DHT22;5802;52.832;4.758;2022-12-29T15:55:55;22.70;45.20
11491;DHT22;5802;52.832;4.758;2022-12-29T15:58:27;22.70;45.20
11491;DHT22;5802;52.832;4.758;2022-12-29T16:00:55;22.70;45.20
11491;DHT22;5802;52.832;4.758;2022-12-29T16:03:24;22.70;45.20
11491;DHT22;5802;52.832;4.758;2022-12-29T16:05:53;22.70;45.20
11491;DHT22;5802;52.832;4.758;2022-12-29T16:08:32;22.70;45.20
11491;DHT22;5802;52.832;4.758;2022-12-29T16:11:00;22.70;45.20
11491;DHT22;5802;52.832;4.758;2022-12-29T16:13:31;22.70;45.20
11491;DHT22;5802;52.832;4.758;2022-12-29T16:16:02;22.70;45.20
11491;DHT22;5802;52.832;4.758;2022-12-29T16:18:33;22.70;45.10